Rio Blanco — D5BO9 — position and weather

sailwx.info

Track history (hours):
 
Tides and Currents Weather Stations Pressure Air Temp Water Temp Dewpoint Dewpoint Depression Visibility Wind Speed Wind Dir Waves Ship Positions

Rio Blanco

Last reported at 2017-Oct-22 04:28 UTC. Time now 2017-Oct-22 04:48 UTC.
Position N 36°46' W 009°30'.

Length 286 m; draft 11.2 m.

Type: Ship (hazmat cat A). MMSI: 636092395.

Date/timePositionNaut miles runAvg speedWind from/ knotsBaromVisibWave heightAir tempDewpointWater temp
2017-Oct-22 04:28N 36°46' W 009°30'1215.3
2017-Oct-22 03:42N 36°57' W 009°35'6115.0
2017-Oct-21 23:38N 37°56' W 009°52'215.2
2017-Oct-21 23:30N 37°58' W 009°53'815.5
2017-Oct-21 23:00N 38°06' W 009°55'816.1
2017-Oct-21 22:30N 38°14' W 009°57'815.6
2017-Oct-21 22:01N 38°21' W 009°59'815.1
2017-Oct-21 21:31N 38°29' W 010°01'714.8
2017-Oct-21 21:01N 38°36' W 010°03'714.9
2017-Oct-21 20:30N 38°43' W 010°05'715.0
2017-Oct-21 20:00N 38°51' W 010°06'815.6
2017-Oct-21 19:30N 38°58' W 010°05'816.2
2017-Oct-21 19:01N 39°07' W 010°05'815.9
2017-Oct-21 18:30N 39°14' W 010°04'815.2
2017-Oct-21 18:00N 39°22' W 010°04'815.2
2017-Oct-21 17:30N 39°30' W 010°05'15614.9
2017-Oct-21 07:00N 42°06' W 010°06'19014.6 290 / 201025.210.8 17.3 9.719.0
2017-Oct-20 18:00N 45°06' W 008°42'15212.6 290 / 331008.7 5.4 18.213.718.0
2017-Oct-20 06:00N 47°18' W 006°54'10615.0 240 / 161010.710.8 15.5 6.515.0
2017-Oct-19 22:54N 48°54' W 005°46'713.6
2017-Oct-19 22:23N 48°58' W 005°37'513.8
2017-Oct-19 21:59N 49°01' W 005°30'5213.1
2017-Oct-19 18:00N 49°24' W 004°18'4012.5 240 / 28996.9 5.4 17.011.015.0
2017-Oct-19 14:46N 49°47' W 003°27'414.3
2017-Oct-19 14:30N 49°49' W 003°22'715.0
2017-Oct-19 14:00N 49°52' W 003°12'815.9
2017-Oct-19 13:30N 49°56' W 003°01'816.3
2017-Oct-19 13:00N 49°60' W 002°49'816.7
2017-Oct-19 12:30N 50°02' W 002°37'1016.5
2017-Oct-19 11:54N 50°05' W 002°22'616.1
2017-Oct-19 11:30N 50°06' W 002°12'1714.7
2017-Oct-19 10:22N 50°11' W 001°47'613.5
2017-Oct-19 09:56N 50°12' W 001°39'1312.6
2017-Oct-19 08:55N 50°16' W 001°19'611.6
2017-Oct-19 08:22N 50°17' W 001°10'411.3
2017-Oct-19 08:00N 50°19' W 001°03'611.4
2017-Oct-19 07:30N 50°20' W 000°55'611.9
2017-Oct-19 06:59N 50°22' W 000°46'612.5
2017-Oct-19 06:30N 50°23' W 000°36'815.4
2017-Oct-19 06:00N 50°24' W 000°24'2445.9 140 / 101006.0 5.4 17.014.116.0
2017-Oct-19 05:59N 50°25' W 000°26'714.4
2017-Oct-19 05:30N 50°27' W 000°15'815.2
2017-Oct-19 05:00N 50°29' W 000°04'815.9
2017-Oct-19 04:30N 50°31' E 000°08'816.3
2017-Oct-19 04:01N 50°33' E 000°21'816.4
2017-Oct-19 03:30N 50°35' E 000°33'816.0
2017-Oct-19 03:00N 50°39' E 000°44'815.7
2017-Oct-19 02:31N 50°44' E 000°54'815.1
2017-Oct-19 02:01N 50°48' E 001°04'714.4
2017-Oct-19 01:31N 50°52' E 001°13'713.5
2017-Oct-19 01:00N 50°57' E 001°21'712.6
2017-Oct-19 00:29N 51°02' E 001°28'511.7
2017-Oct-19 00:01N 51°06' E 001°34'611.6
2017-Oct-18 23:30N 51°10' E 001°41'612.4
2017-Oct-18 23:00N 51°15' E 001°47'713.4
2017-Oct-18 22:31N 51°21' E 001°52'714.5
2017-Oct-18 22:01N 51°27' E 001°57'815.5
2017-Oct-18 21:31N 51°33' E 002°06'816.3
2017-Oct-18 21:01N 51°39' E 002°14'816.5
2017-Oct-18 20:31N 51°45' E 002°23'916.7
2017-Oct-18 19:59N 51°52' E 002°33'816.5
2017-Oct-18 19:28N 51°58' E 002°41'1416.3
2017-Oct-18 18:35N 52°09' E 002°56'116.0
2017-Oct-18 18:30N 52°10' E 002°58'815.8
2017-Oct-18 18:00N 52°17' E 003°06'915.3
2017-Oct-18 17:26N 52°24' E 003°14'714.9
2017-Oct-18 16:58N 52°30' E 003°20'714.7
2017-Oct-18 16:30N 52°35' E 003°27'714.5
2017-Oct-18 16:00N 52°40' E 003°34'714.3
2017-Oct-18 15:30N 52°46' E 003°41'714.2
2017-Oct-18 15:01N 52°51' E 003°49'1414.1
2017-Oct-18 14:00N 53°01' E 004°07'714.6
2017-Oct-18 13:30N 53°06' E 004°16'714.9
2017-Oct-18 13:00N 53°11' E 004°24'815.5
2017-Oct-18 12:30N 53°19' E 004°29'815.8
2017-Oct-18 12:00N 53°26' E 004°35'815.6
2017-Oct-18 11:31N 53°30' E 004°45'816.4
2017-Oct-18 11:01N 53°34' E 004°57'816.2
2017-Oct-18 10:31N 53°37' E 005°10'815.7
2017-Oct-18 09:59N 53°40' E 005°23'715.4
2017-Oct-18 09:30N 53°42' E 005°35'1715.2
2017-Oct-18 08:22N 53°46' E 006°03'512.3
2017-Oct-18 07:58N 53°48' E 006°11'2210.9
2017-Oct-18 06:00N 53°48' E 006°48'2913.7 230 / 141014.710.8 14.011.315.0
2017-Oct-18 03:51N 54°00' E 007°34'513.2
2017-Oct-18 03:29N 54°01' E 007°41'613.1
2017-Oct-18 03:00N 54°01' E 007°52'713.5
2017-Oct-18 02:30N 54°01' E 008°04'612.4
2017-Oct-18 02:00N 54°00' E 008°14'1019.5
2017-Oct-18 01:30N 53°58' E 008°30'917.7
2017-Oct-18 01:00N 53°53' E 008°42'714.7
2017-Oct-18 00:30N 53°51' E 008°54'816.4
2017-Oct-18 00:00N 53°53' E 009°07'5 9.3
2017-Oct-17 23:30N 53°52' E 009°15'612.9
2017-Oct-17 23:00N 53°48' E 009°23'611.7
2017-Oct-17 22:30N 53°43' E 009°28'510.3
2017-Oct-17 22:00N 53°38' E 009°32'510.4
2017-Oct-17 21:30N 53°35' E 009°38'5 9.3
2017-Oct-17 21:00N 53°34' E 009°46'5 9.4
2017-Oct-17 20:30N 53°33' E 009°53'3 5.3
2017-Oct-17 20:00N 53°31' E 009°56'0 0.3
2017-Oct-17 19:30N 53°30' E 009°56'0 0.0
2017-Oct-17 19:00N 53°30' E 009°56'0 0.0
2017-Oct-17 18:30N 53°30' E 009°56'0 0.0
2017-Oct-17 18:00N 53°30' E 009°56'0 0.0
2017-Oct-17 17:30N 53°30' E 009°56'0 0.0
2017-Oct-17 17:00N 53°30' E 009°56'0 0.0
2017-Oct-17 16:30N 53°30' E 009°56'0 0.0
2017-Oct-17 16:00N 53°30' E 009°56'0 0.0
2017-Oct-17 15:30N 53°30' E 009°56'0 0.0
2017-Oct-17 15:00N 53°30' E 009°56'0 0.0
2017-Oct-17 14:30N 53°30' E 009°56'0 0.0
2017-Oct-17 14:00N 53°30' E 009°56'0 0.0
2017-Oct-17 13:30N 53°30' E 009°56'0 0.0
2017-Oct-17 13:00N 53°30' E 009°56'0 0.0
2017-Oct-17 12:30N 53°30' E 009°56'0 0.0
2017-Oct-17 12:00N 53°30' E 009°56'0 0.0
2017-Oct-17 11:30N 53°30' E 009°56'0 0.0
2017-Oct-17 11:00N 53°30' E 009°56'0 0.0
2017-Oct-17 10:30N 53°30' E 009°56'0 0.0
2017-Oct-17 10:00N 53°30' E 009°56'0 0.0
2017-Oct-17 09:30N 53°30' E 009°56'0 0.0
2017-Oct-17 09:00N 53°30' E 009°56'0 0.0
2017-Oct-17 08:30N 53°30' E 009°56'0 0.0
2017-Oct-17 08:00N 53°30' E 009°56'0 0.0
2017-Oct-17 07:30N 53°30' E 009°56'0 0.0
2017-Oct-17 07:00N 53°30' E 009°56'0 0.0
2017-Oct-17 06:30N 53°30' E 009°56'0 0.0
2017-Oct-17 06:00N 53°30' E 009°56'0 0.0
2017-Oct-17 05:30N 53°30' E 009°56'0 0.0
2017-Oct-17 05:00N 53°30' E 009°56'0 0.0
2017-Oct-17 04:30N 53°30' E 009°56'0 0.0
2017-Oct-17 04:00N 53°30' E 009°56'0 0.0
2017-Oct-17 03:30N 53°30' E 009°56'0 0.0
2017-Oct-17 03:00N 53°30' E 009°56'0 0.0
2017-Oct-17 02:30N 53°30' E 009°56'0 0.0
2017-Oct-17 02:00N 53°30' E 009°56'0 0.0
2017-Oct-17 01:30N 53°30' E 009°56'0 0.0
2017-Oct-17 01:00N 53°30' E 009°56'0 0.0
2017-Oct-17 00:30N 53°30' E 009°56'0 0.1
2017-Oct-17 00:01N 53°30' E 009°56'0 0.5
2017-Oct-16 23:31N 53°30' E 009°56'0 0.7
2017-Oct-16 23:00N 53°30' E 009°57'3 5.6
2017-Oct-16 22:31N 53°32' E 009°55'510.3
2017-Oct-16 22:01N 53°34' E 009°46'511.0
2017-Oct-16 21:31N 53°35' E 009°37'612.3
2017-Oct-16 21:01N 53°40' E 009°31'713.3
2017-Oct-16 20:30N 53°45' E 009°24'816.5
2017-Oct-16 20:01N 53°52' E 009°17'713.1
2017-Oct-16 19:30N 53°53' E 009°06'815.7
2017-Oct-16 19:00N 53°50' E 008°53'714.5
2017-Oct-16 18:31N 53°53' E 008°42'918.0
2017-Oct-16 18:00N 53°58' E 008°29'1019.2
2017-Oct-16 17:30N 53°60' E 008°13'815.8
2017-Oct-16 17:00N 53°59' E 007°60'1621.3
2017-Oct-16 16:14N 53°55' E 007°32'520.5
2017-Oct-16 16:00N 53°54' E 007°25'1018.3
2017-Oct-16 15:29N 53°51' E 007°09'918.2
2017-Oct-16 14:59N 53°49' E 006°54'917.9
2017-Oct-16 14:30N 53°47' E 006°40'1817.7
2017-Oct-16 13:27N 53°43' E 006°09'817.7
2017-Oct-16 13:00N 53°41' E 005°57'1318.9
2017-Oct-16 12:18N 53°36' E 005°36'1119.9
2017-Oct-16 11:44N 53°33' E 005°17'419.8
2017-Oct-16 11:30N 53°31' E 005°10'1019.8
2017-Oct-16 11:00N 53°28' E 004°54'918.7
2017-Oct-16 10:30N 53°23' E 004°41'918.5
2017-Oct-16 10:00N 53°15' E 004°34'918.4
2017-Oct-16 09:30N 53°07' E 004°27'918.4
2017-Oct-16 09:00N 52°59' E 004°20'918.1
2017-Oct-16 08:30N 52°51' E 004°13'917.2
2017-Oct-16 08:00N 52°44' E 004°05'816.2
2017-Oct-16 07:30N 52°38' E 003°56'612.2
2017-Oct-16 07:00N 52°33' E 003°49'510.7
2017-Oct-16 06:30N 52°29' E 003°43'510.0
2017-Oct-16 06:00N 52°26' E 003°37'2137.4
2017-Oct-16 06:00N 52°24' E 003°36'3 6.9 180 / 101017.910.8 20.013.916.0
2017-Oct-16 05:30N 52°23' E 003°31'5 9.6
2017-Oct-16 05:00N 52°18' E 003°29'5 9.9
2017-Oct-16 04:30N 52°13' E 003°28'510.0
2017-Oct-16 04:00N 52°08' E 003°26'510.3
2017-Oct-16 03:30N 52°03' E 003°25'510.6
2017-Oct-16 03:00N 51°58' E 003°23'510.8
2017-Oct-16 02:30N 51°53' E 003°21'611.1
2017-Oct-16 02:00N 51°48' E 003°17'611.1
2017-Oct-16 01:30N 51°42' E 003°14'816.6
2017-Oct-16 01:00N 51°35' E 003°10'918.9
2017-Oct-16 00:30N 51°27' E 003°00'713.5
2017-Oct-16 00:00N 51°24' E 003°10'917.8
2017-Oct-15 23:30N 51°25' E 003°24'714.4
2017-Oct-15 23:00N 51°26' E 003°36'5 9.1
2017-Oct-15 22:31N 51°25' E 003°43'713.7
2017-Oct-15 22:00N 51°21' E 003°52'713.7
2017-Oct-15 21:31N 51°26' E 003°59'510.7
2017-Oct-15 21:00N 51°22' E 004°05'510.1
2017-Oct-15 20:30N 51°22' E 004°13'2 4.6
2017-Oct-15 20:00N 51°21' E 004°16'0 0.1
2017-Oct-15 19:31N 51°21' E 004°16'0 0.0
2017-Oct-15 19:00N 51°21' E 004°16'0 0.0
2017-Oct-15 18:29N 51°21' E 004°16'0 0.0
2017-Oct-15 18:00N 51°21' E 004°16'0 0.0
2017-Oct-15 17:31N 51°21' E 004°16'0 0.0
2017-Oct-15 17:01N 51°21' E 004°16'0 0.1
2017-Oct-15 16:30N 51°21' E 004°16'0 0.1
2017-Oct-15 16:00N 51°21' E 004°16'0 0.0
2017-Oct-15 15:30N 51°21' E 004°16'0 0.0
2017-Oct-15 15:01N 51°21' E 004°16'0 0.0
2017-Oct-15 14:00N 51°21' E 004°16'0 0.1
2017-Oct-15 13:31N 51°21' E 004°16'0 0.0
2017-Oct-15 13:00N 51°21' E 004°16'0 0.0
2017-Oct-15 12:30N 51°21' E 004°16'0 0.0
2017-Oct-15 12:00N 51°21' E 004°16'0 0.0
2017-Oct-15 11:31N 51°21' E 004°16'0 0.0
2017-Oct-15 11:00N 51°21' E 004°16'0 0.0
2017-Oct-15 10:31N 51°21' E 004°16'0 0.0
2017-Oct-15 10:01N 51°21' E 004°16'0 0.0
2017-Oct-15 09:30N 51°21' E 004°16'0 0.0
2017-Oct-15 09:01N 51°21' E 004°16'0 0.0
2017-Oct-15 08:30N 51°21' E 004°16'0 0.0
2017-Oct-15 08:01N 51°21' E 004°16'0 0.0
2017-Oct-15 07:31N 51°21' E 004°16'0 0.0
2017-Oct-15 07:01N 51°21' E 004°16'0 0.0
2017-Oct-15 06:31N 51°21' E 004°16'0 0.0
2017-Oct-15 06:01N 51°21' E 004°16'0 0.0
2017-Oct-15 05:31N 51°21' E 004°16'0 0.0
2017-Oct-15 05:00N 51°21' E 004°16'0 0.0
2017-Oct-15 04:30N 51°21' E 004°16'0 0.0
2017-Oct-15 04:01N 51°21' E 004°16'0 0.0
2017-Oct-15 03:30N 51°21' E 004°16'0 0.0
2017-Oct-15 03:00N 51°21' E 004°16'0 0.0
2017-Oct-15 02:31N 51°21' E 004°16'0 0.0
2017-Oct-15 02:01N 51°21' E 004°16'1 2.3
2017-Oct-15 01:31N 51°21' E 004°14'5 9.1
2017-Oct-15 01:00N 51°22' E 004°07'611.4
2017-Oct-15 00:30N 51°26' E 004°00'714.2
2017-Oct-15 00:00N 51°21' E 003°52'613.0
2017-Oct-14 23:30N 51°23' E 003°43'510.7
2017-Oct-14 23:01N 51°26' E 003°35'3 6.7
2017-Oct-14 22:31N 51°25' E 003°30'611.4
2017-Oct-14 22:01N 51°24' E 003°21'816.5
2017-Oct-14 21:30N 51°24' E 003°07'815.8
2017-Oct-14 21:00N 51°22' E 002°55'713.5
2017-Oct-14 20:29N 51°22' E 002°44'613.2
2017-Oct-14 20:00N 51°22' E 002°34'815.4
2017-Oct-14 19:30N 51°20' E 002°22'714.2
2017-Oct-14 19:00N 51°19' E 002°11'611.6
2017-Oct-14 18:30N 51°21' E 002°02'611.7
2017-Oct-14 18:00N 51°26' E 001°57'611.9
2017-Oct-14 17:30N 51°31' E 001°52'611.7
2017-Oct-14 17:00N 51°36' E 001°47'611.8
2017-Oct-14 16:30N 51°42' E 001°44'612.4
2017-Oct-14 16:00N 51°48' E 001°43'510.7
2017-Oct-14 15:30N 51°51' E 001°36'4 8.8
2017-Oct-14 15:00N 51°55' E 001°32'5 9.0
2017-Oct-14 14:30N 51°56' E 001°25'4 8.2
2017-Oct-14 14:00N 51°56' E 001°19'2 3.3
2017-Oct-14 13:29N 51°58' E 001°18'0 0.0
2017-Oct-14 12:59N 51°58' E 001°18'0 0.0
2017-Oct-14 12:29N 51°58' E 001°18'0 0.0
2017-Oct-14 11:59N 51°58' E 001°18'0 0.0
2017-Oct-14 11:29N 51°58' E 001°18'0 0.0
2017-Oct-14 10:59N 51°58' E 001°18'0 0.0
2017-Oct-14 10:29N 51°58' E 001°18'0 0.0
2017-Oct-14 09:59N 51°58' E 001°18'0 0.0
2017-Oct-14 09:29N 51°58' E 001°18'0 0.0
2017-Oct-14 08:59N 51°58' E 001°18'0 0.0
2017-Oct-14 08:29N 51°58' E 001°18'0 0.0
2017-Oct-14 07:59N 51°58' E 001°18'0 0.0
2017-Oct-14 07:29N 51°58' E 001°18'0 0.0
2017-Oct-14 06:59N 51°58' E 001°18'0 0.0
2017-Oct-14 06:29N 51°58' E 001°18'0 0.0
2017-Oct-14 05:59N 51°58' E 001°18'0 0.0
2017-Oct-14 05:29N 51°58' E 001°18'0 0.0
2017-Oct-14 04:59N 51°58' E 001°18'0 0.0
2017-Oct-14 04:29N 51°58' E 001°18'0 0.0
2017-Oct-14 03:59N 51°58' E 001°18'0 0.0
2017-Oct-14 03:29N 51°58' E 001°18'0 0.0
2017-Oct-14 02:59N 51°58' E 001°18'0 0.0
2017-Oct-14 02:29N 51°58' E 001°18'0 0.0
2017-Oct-14 01:59N 51°58' E 001°18'0 0.0
2017-Oct-14 01:29N 51°58' E 001°18'0 0.0
2017-Oct-14 00:59N 51°58' E 001°18'0 0.0
2017-Oct-14 00:29N 51°58' E 001°18'0 0.0
2017-Oct-13 23:59N 51°58' E 001°18'0 0.0
2017-Oct-13 23:29N 51°58' E 001°18'0 0.0
2017-Oct-13 22:59N 51°58' E 001°18'0 0.0
2017-Oct-13 22:29N 51°58' E 001°18'0 0.0
2017-Oct-13 21:59N 51°58' E 001°18'0 0.0
2017-Oct-13 21:29N 51°58' E 001°18'0 0.0
2017-Oct-13 21:00N 51°58' E 001°18'0 0.0
2017-Oct-13 20:29N 51°58' E 001°18'0 0.0
2017-Oct-13 19:59N 51°58' E 001°18'0 0.0
2017-Oct-13 19:29N 51°58' E 001°18'0 0.0
2017-Oct-13 18:59N 51°58' E 001°18'0 0.0
2017-Oct-13 18:29N 51°58' E 001°18'0 0.0
2017-Oct-13 17:59N 51°58' E 001°18'0 0.0
2017-Oct-13 17:29N 51°58' E 001°18'0 0.0
2017-Oct-13 16:59N 51°58' E 001°18'0 0.0
2017-Oct-13 16:29N 51°58' E 001°18'0 0.0
2017-Oct-13 15:59N 51°58' E 001°18'0 0.0
2017-Oct-13 15:29N 51°58' E 001°18'0 0.0
2017-Oct-13 14:59N 51°58' E 001°18'0 0.0
2017-Oct-13 14:29N 51°58' E 001°18'0 0.0
2017-Oct-13 13:59N 51°58' E 001°18'0 0.0
2017-Oct-13 13:29N 51°58' E 001°18'0 0.0
2017-Oct-13 12:59N 51°58' E 001°18'0 0.0
2017-Oct-13 12:29N 51°58' E 001°18'0 0.0
2017-Oct-13 11:59N 51°58' E 001°18'0 0.0
2017-Oct-13 11:29N 51°58' E 001°18'0 0.0
2017-Oct-13 10:59N 51°58' E 001°18'0 0.0
2017-Oct-13 10:29N 51°58' E 001°18'0 0.0
2017-Oct-13 09:59N 51°58' E 001°18'0 0.4
2017-Oct-13 09:30N 51°57' E 001°18'2 3.6
2017-Oct-13 09:00N 51°56' E 001°19'510.1
2017-Oct-13 08:31N 51°56' E 001°27'611.1
2017-Oct-13 08:01N 51°52' E 001°34'4 8.8
2017-Oct-13 07:30N 51°51' E 001°41'3 6.0
2017-Oct-13 07:00N 51°51' E 001°46'510.3
2017-Oct-13 06:30N 51°46' E 001°48'612.1
2017-Oct-13 06:00N 51°40' E 001°49'611.2
2017-Oct-13 05:30N 51°35' E 001°53'510.8
2017-Oct-13 05:00N 51°31' E 001°57'510.1
2017-Oct-13 04:30N 51°26' E 002°01'5 9.5
2017-Oct-13 04:00N 51°21' E 001°59'1010.4
2017-Oct-13 03:00N 51°13' E 001°49'5 9.7
2017-Oct-13 02:30N 51°09' E 001°44'4 8.9
2017-Oct-13 02:00N 51°06' E 001°40'4 8.5
2017-Oct-13 01:30N 51°02' E 001°36'4 8.3
2017-Oct-13 01:00N 50°59' E 001°32'4 8.2
2017-Oct-13 00:30N 50°56' E 001°28'4 7.8
2017-Oct-13 00:00N 50°52' E 001°26'4 8.1
2017-Oct-12 23:30N 50°48' E 001°24'4 8.4
2017-Oct-12 23:00N 50°44' E 001°21'4 8.6
2017-Oct-12 22:30N 50°41' E 001°17'5 9.1
2017-Oct-12 22:00N 50°38' E 001°12'5 9.3
2017-Oct-12 21:29N 50°34' E 001°07'5 9.3
2017-Oct-12 20:59N 50°31' E 001°02'4 8.9
2017-Oct-12 20:29N 50°29' E 000°56'5 9.5
2017-Oct-12 20:00N 50°28' E 000°48'5 9.5
2017-Oct-12 19:30N 50°27' E 000°41'5 9.6
2017-Oct-12 19:00N 50°26' E 000°34'5 9.6
2017-Oct-12 18:30N 50°24' E 000°27'5 9.6
2017-Oct-12 18:00N 50°23' E 000°20'5 9.6
2017-Oct-12 17:30N 50°22' E 000°12'5 9.7
2017-Oct-12 17:00N 50°21' E 000°05'510.0
2017-Oct-12 16:30N 50°19' W 000°03'510.3
2017-Oct-12 16:00N 50°18' W 000°10'510.6
2017-Oct-12 15:30N 50°16' W 000°18'511.0
2017-Oct-12 15:00N 50°15' W 000°27'611.5
2017-Oct-12 14:30N 50°13' W 000°35'3012.1
2017-Oct-12 12:00N 50°00' W 001°18'4115.8 230 / 111022.910.8 17.5 9.416.0
2017-Oct-12 09:22N 49°55' W 002°22'715.5
2017-Oct-12 08:54N 49°53' W 002°33'615.3
2017-Oct-12 08:30N 49°51' W 002°42'815.3
2017-Oct-12 08:00N 49°49' W 002°53'815.1
2017-Oct-12 07:30N 49°46' W 003°04'714.9
2017-Oct-12 07:00N 49°44' W 003°15'815.0
2017-Oct-12 06:28N 49°40' W 003°26'5 9.5
2017-Oct-12 06:00N 49°36' W 003°30'486.7 250 / 101020.510.8 17.011.516.0
2017-Oct-12 05:57N 49°36' W 003°36'815.0
2017-Oct-12 05:25N 49°32' W 003°47'615.0
2017-Oct-12 05:00N 49°28' W 003°55'  
Track history (hours):
 
Tides and Currents Weather Stations Pressure Air Temp Water Temp Dewpoint Dewpoint Depression Visibility Wind Speed Wind Dir Waves Ship Positions

Rio Blanco

Last reported at 2017-Oct-22 04:28 UTC. Time now 2017-Oct-22 04:48 UTC.
Position N 36°46' W 009°30'.

Length 286 m; draft 11.2 m.

Type: Ship (hazmat cat A). MMSI: 636092395.

Date/timePositionNaut miles runAvg speedWind from/ knotsBaromVisibWave heightAir tempDewpointWater temp
2017-Oct-22 04:28N 36°46' W 009°30'1215.3
2017-Oct-22 03:42N 36°57' W 009°35'6115.0
2017-Oct-21 23:38N 37°56' W 009°52'215.2
2017-Oct-21 23:30N 37°58' W 009°53'815.5
2017-Oct-21 23:00N 38°06' W 009°55'816.1
2017-Oct-21 22:30N 38°14' W 009°57'815.6
2017-Oct-21 22:01N 38°21' W 009°59'815.1
2017-Oct-21 21:31N 38°29' W 010°01'714.8
2017-Oct-21 21:01N 38°36' W 010°03'714.9
2017-Oct-21 20:30N 38°43' W 010°05'715.0
2017-Oct-21 20:00N 38°51' W 010°06'815.6
2017-Oct-21 19:30N 38°58' W 010°05'816.2
2017-Oct-21 19:01N 39°07' W 010°05'815.9
2017-Oct-21 18:30N 39°14' W 010°04'815.2
2017-Oct-21 18:00N 39°22' W 010°04'815.2
2017-Oct-21 17:30N 39°30' W 010°05'15614.9
2017-Oct-21 07:00N 42°06' W 010°06'19014.6 290 / 201025.210.8 17.3 9.719.0
2017-Oct-20 18:00N 45°06' W 008°42'15212.6 290 / 331008.7 5.4 18.213.718.0
2017-Oct-20 06:00N 47°18' W 006°54'10615.0 240 / 161010.710.8 15.5 6.515.0
2017-Oct-19 22:54N 48°54' W 005°46'713.6
2017-Oct-19 22:23N 48°58' W 005°37'513.8
2017-Oct-19 21:59N 49°01' W 005°30'5213.1
2017-Oct-19 18:00N 49°24' W 004°18'4012.5 240 / 28996.9 5.4 17.011.015.0
2017-Oct-19 14:46N 49°47' W 003°27'414.3
2017-Oct-19 14:30N 49°49' W 003°22'715.0
2017-Oct-19 14:00N 49°52' W 003°12'815.9
2017-Oct-19 13:30N 49°56' W 003°01'816.3
2017-Oct-19 13:00N 49°60' W 002°49'816.7
2017-Oct-19 12:30N 50°02' W 002°37'1016.5
2017-Oct-19 11:54N 50°05' W 002°22'616.1
2017-Oct-19 11:30N 50°06' W 002°12'1714.7
2017-Oct-19 10:22N 50°11' W 001°47'613.5
2017-Oct-19 09:56N 50°12' W 001°39'1312.6
2017-Oct-19 08:55N 50°16' W 001°19'611.6
2017-Oct-19 08:22N 50°17' W 001°10'411.3
2017-Oct-19 08:00N 50°19' W 001°03'611.4
2017-Oct-19 07:30N 50°20' W 000°55'611.9
2017-Oct-19 06:59N 50°22' W 000°46'612.5
2017-Oct-19 06:30N 50°23' W 000°36'815.4
2017-Oct-19 06:00N 50°24' W 000°24'2445.9 140 / 101006.0 5.4 17.014.116.0
2017-Oct-19 05:59N 50°25' W 000°26'714.4
2017-Oct-19 05:30N 50°27' W 000°15'815.2
2017-Oct-19 05:00N 50°29' W 000°04'815.9
2017-Oct-19 04:30N 50°31' E 000°08'816.3
2017-Oct-19 04:01N 50°33' E 000°21'816.4
2017-Oct-19 03:30N 50°35' E 000°33'816.0
2017-Oct-19 03:00N 50°39' E 000°44'815.7
2017-Oct-19 02:31N 50°44' E 000°54'815.1
2017-Oct-19 02:01N 50°48' E 001°04'714.4
2017-Oct-19 01:31N 50°52' E 001°13'713.5
2017-Oct-19 01:00N 50°57' E 001°21'712.6
2017-Oct-19 00:29N 51°02' E 001°28'511.7
2017-Oct-19 00:01N 51°06' E 001°34'611.6
2017-Oct-18 23:30N 51°10' E 001°41'612.4
2017-Oct-18 23:00N 51°15' E 001°47'713.4
2017-Oct-18 22:31N 51°21' E 001°52'714.5
2017-Oct-18 22:01N 51°27' E 001°57'815.5
2017-Oct-18 21:31N 51°33' E 002°06'816.3
2017-Oct-18 21:01N 51°39' E 002°14'816.5
2017-Oct-18 20:31N 51°45' E 002°23'916.7
2017-Oct-18 19:59N 51°52' E 002°33'816.5
2017-Oct-18 19:28N 51°58' E 002°41'1416.3
2017-Oct-18 18:35N 52°09' E 002°56'116.0
2017-Oct-18 18:30N 52°10' E 002°58'815.8
2017-Oct-18 18:00N 52°17' E 003°06'915.3
2017-Oct-18 17:26N 52°24' E 003°14'714.9
2017-Oct-18 16:58N 52°30' E 003°20'714.7
2017-Oct-18 16:30N 52°35' E 003°27'714.5
2017-Oct-18 16:00N 52°40' E 003°34'714.3
2017-Oct-18 15:30N 52°46' E 003°41'714.2
2017-Oct-18 15:01N 52°51' E 003°49'1414.1
2017-Oct-18 14:00N 53°01' E 004°07'714.6
2017-Oct-18 13:30N 53°06' E 004°16'714.9
2017-Oct-18 13:00N 53°11' E 004°24'815.5
2017-Oct-18 12:30N 53°19' E 004°29'815.8
2017-Oct-18 12:00N 53°26' E 004°35'815.6
2017-Oct-18 11:31N 53°30' E 004°45'816.4
2017-Oct-18 11:01N 53°34' E 004°57'816.2
2017-Oct-18 10:31N 53°37' E 005°10'815.7
2017-Oct-18 09:59N 53°40' E 005°23'715.4
2017-Oct-18 09:30N 53°42' E 005°35'1715.2
2017-Oct-18 08:22N 53°46' E 006°03'512.3
2017-Oct-18 07:58N 53°48' E 006°11'2210.9
2017-Oct-18 06:00N 53°48' E 006°48'2913.7 230 / 141014.710.8 14.011.315.0
2017-Oct-18 03:51N 54°00' E 007°34'513.2
2017-Oct-18 03:29N 54°01' E 007°41'613.1
2017-Oct-18 03:00N 54°01' E 007°52'713.5
2017-Oct-18 02:30N 54°01' E 008°04'612.4
2017-Oct-18 02:00N 54°00' E 008°14'1019.5
2017-Oct-18 01:30N 53°58' E 008°30'917.7
2017-Oct-18 01:00N 53°53' E 008°42'714.7
2017-Oct-18 00:30N 53°51' E 008°54'816.4
2017-Oct-18 00:00N 53°53' E 009°07'5 9.3
2017-Oct-17 23:30N 53°52' E 009°15'612.9
2017-Oct-17 23:00N 53°48' E 009°23'611.7
2017-Oct-17 22:30N 53°43' E 009°28'510.3
2017-Oct-17 22:00N 53°38' E 009°32'510.4
2017-Oct-17 21:30N 53°35' E 009°38'5 9.3
2017-Oct-17 21:00N 53°34' E 009°46'5 9.4
2017-Oct-17 20:30N 53°33' E 009°53'3 5.3
2017-Oct-17 20:00N 53°31' E 009°56'0 0.3
2017-Oct-17 19:30N 53°30' E 009°56'0 0.0
2017-Oct-17 19:00N 53°30' E 009°56'0 0.0
2017-Oct-17 18:30N 53°30' E 009°56'0 0.0
2017-Oct-17 18:00N 53°30' E 009°56'0 0.0
2017-Oct-17 17:30N 53°30' E 009°56'0 0.0
2017-Oct-17 17:00N 53°30' E 009°56'0 0.0
2017-Oct-17 16:30N 53°30' E 009°56'0 0.0
2017-Oct-17 16:00N 53°30' E 009°56'0 0.0
2017-Oct-17 15:30N 53°30' E 009°56'0 0.0
2017-Oct-17 15:00N 53°30' E 009°56'0 0.0
2017-Oct-17 14:30N 53°30' E 009°56'0 0.0
2017-Oct-17 14:00N 53°30' E 009°56'0 0.0
2017-Oct-17 13:30N 53°30' E 009°56'0 0.0
2017-Oct-17 13:00N 53°30' E 009°56'0 0.0
2017-Oct-17 12:30N 53°30' E 009°56'0 0.0
2017-Oct-17 12:00N 53°30' E 009°56'0 0.0
2017-Oct-17 11:30N 53°30' E 009°56'0 0.0
2017-Oct-17 11:00N 53°30' E 009°56'0 0.0
2017-Oct-17 10:30N 53°30' E 009°56'0 0.0
2017-Oct-17 10:00N 53°30' E 009°56'0 0.0
2017-Oct-17 09:30N 53°30' E 009°56'0 0.0
2017-Oct-17 09:00N 53°30' E 009°56'0 0.0
2017-Oct-17 08:30N 53°30' E 009°56'0 0.0
2017-Oct-17 08:00N 53°30' E 009°56'0 0.0
2017-Oct-17 07:30N 53°30' E 009°56'0 0.0
2017-Oct-17 07:00N 53°30' E 009°56'0 0.0
2017-Oct-17 06:30N 53°30' E 009°56'0 0.0
2017-Oct-17 06:00N 53°30' E 009°56'0 0.0
2017-Oct-17 05:30N 53°30' E 009°56'0 0.0
2017-Oct-17 05:00N 53°30' E 009°56'0 0.0
2017-Oct-17 04:30N 53°30' E 009°56'0 0.0
2017-Oct-17 04:00N 53°30' E 009°56'0 0.0
2017-Oct-17 03:30N 53°30' E 009°56'0 0.0
2017-Oct-17 03:00N 53°30' E 009°56'0 0.0
2017-Oct-17 02:30N 53°30' E 009°56'0 0.0
2017-Oct-17 02:00N 53°30' E 009°56'0 0.0
2017-Oct-17 01:30N 53°30' E 009°56'0 0.0
2017-Oct-17 01:00N 53°30' E 009°56'0 0.0
2017-Oct-17 00:30N 53°30' E 009°56'0 0.1
2017-Oct-17 00:01N 53°30' E 009°56'0 0.5
2017-Oct-16 23:31N 53°30' E 009°56'0 0.7
2017-Oct-16 23:00N 53°30' E 009°57'3 5.6
2017-Oct-16 22:31N 53°32' E 009°55'510.3
2017-Oct-16 22:01N 53°34' E 009°46'511.0
2017-Oct-16 21:31N 53°35' E 009°37'612.3
2017-Oct-16 21:01N 53°40' E 009°31'713.3
2017-Oct-16 20:30N 53°45' E 009°24'816.5
2017-Oct-16 20:01N 53°52' E 009°17'713.1
2017-Oct-16 19:30N 53°53' E 009°06'815.7
2017-Oct-16 19:00N 53°50' E 008°53'714.5
2017-Oct-16 18:31N 53°53' E 008°42'918.0
2017-Oct-16 18:00N 53°58' E 008°29'1019.2
2017-Oct-16 17:30N 53°60' E 008°13'815.8
2017-Oct-16 17:00N 53°59' E 007°60'1621.3
2017-Oct-16 16:14N 53°55' E 007°32'520.5
2017-Oct-16 16:00N 53°54' E 007°25'1018.3
2017-Oct-16 15:29N 53°51' E 007°09'918.2
2017-Oct-16 14:59N 53°49' E 006°54'917.9
2017-Oct-16 14:30N 53°47' E 006°40'1817.7
2017-Oct-16 13:27N 53°43' E 006°09'817.7
2017-Oct-16 13:00N 53°41' E 005°57'1318.9
2017-Oct-16 12:18N 53°36' E 005°36'1119.9
2017-Oct-16 11:44N 53°33' E 005°17'419.8
2017-Oct-16 11:30N 53°31' E 005°10'1019.8
2017-Oct-16 11:00N 53°28' E 004°54'918.7
2017-Oct-16 10:30N 53°23' E 004°41'918.5
2017-Oct-16 10:00N 53°15' E 004°34'918.4
2017-Oct-16 09:30N 53°07' E 004°27'918.4
2017-Oct-16 09:00N 52°59' E 004°20'918.1
2017-Oct-16 08:30N 52°51' E 004°13'917.2
2017-Oct-16 08:00N 52°44' E 004°05'816.2
2017-Oct-16 07:30N 52°38' E 003°56'612.2
2017-Oct-16 07:00N 52°33' E 003°49'510.7
2017-Oct-16 06:30N 52°29' E 003°43'510.0
2017-Oct-16 06:00N 52°26' E 003°37'2137.4
2017-Oct-16 06:00N 52°24' E 003°36'3 6.9 180 / 101017.910.8 20.013.916.0
2017-Oct-16 05:30N 52°23' E 003°31'5 9.6
2017-Oct-16 05:00N 52°18' E 003°29'5 9.9
2017-Oct-16 04:30N 52°13' E 003°28'510.0
2017-Oct-16 04:00N 52°08' E 003°26'510.3
2017-Oct-16 03:30N 52°03' E 003°25'510.6
2017-Oct-16 03:00N 51°58' E 003°23'510.8
2017-Oct-16 02:30N 51°53' E 003°21'611.1
2017-Oct-16 02:00N 51°48' E 003°17'611.1
2017-Oct-16 01:30N 51°42' E 003°14'816.6
2017-Oct-16 01:00N 51°35' E 003°10'918.9
2017-Oct-16 00:30N 51°27' E 003°00'713.5
2017-Oct-16 00:00N 51°24' E 003°10'917.8
2017-Oct-15 23:30N 51°25' E 003°24'714.4
2017-Oct-15 23:00N 51°26' E 003°36'5 9.1
2017-Oct-15 22:31N 51°25' E 003°43'713.7
2017-Oct-15 22:00N 51°21' E 003°52'713.7
2017-Oct-15 21:31N 51°26' E 003°59'510.7
2017-Oct-15 21:00N 51°22' E 004°05'510.1
2017-Oct-15 20:30N 51°22' E 004°13'2 4.6
2017-Oct-15 20:00N 51°21' E 004°16'0 0.1
2017-Oct-15 19:31N 51°21' E 004°16'0 0.0
2017-Oct-15 19:00N 51°21' E 004°16'0 0.0
2017-Oct-15 18:29N 51°21' E 004°16'0 0.0
2017-Oct-15 18:00N 51°21' E 004°16'0 0.0
2017-Oct-15 17:31N 51°21' E 004°16'0 0.0
2017-Oct-15 17:01N 51°21' E 004°16'0 0.1
2017-Oct-15 16:30N 51°21' E 004°16'0 0.1
2017-Oct-15 16:00N 51°21' E 004°16'0 0.0
2017-Oct-15 15:30N 51°21' E 004°16'0 0.0
2017-Oct-15 15:01N 51°21' E 004°16'0 0.0
2017-Oct-15 14:00N 51°21' E 004°16'0 0.1
2017-Oct-15 13:31N 51°21' E 004°16'0 0.0
2017-Oct-15 13:00N 51°21' E 004°16'0 0.0
2017-Oct-15 12:30N 51°21' E 004°16'0 0.0
2017-Oct-15 12:00N 51°21' E 004°16'0 0.0
2017-Oct-15 11:31N 51°21' E 004°16'0 0.0
2017-Oct-15 11:00N 51°21' E 004°16'0 0.0
2017-Oct-15 10:31N 51°21' E 004°16'0 0.0
2017-Oct-15 10:01N 51°21' E 004°16'0 0.0
2017-Oct-15 09:30N 51°21' E 004°16'0 0.0
2017-Oct-15 09:01N 51°21' E 004°16'0 0.0
2017-Oct-15 08:30N 51°21' E 004°16'0 0.0
2017-Oct-15 08:01N 51°21' E 004°16'0 0.0
2017-Oct-15 07:31N 51°21' E 004°16'0 0.0
2017-Oct-15 07:01N 51°21' E 004°16'0 0.0
2017-Oct-15 06:31N 51°21' E 004°16'0 0.0
2017-Oct-15 06:01N 51°21' E 004°16'0 0.0
2017-Oct-15 05:31N 51°21' E 004°16'0 0.0
2017-Oct-15 05:00N 51°21' E 004°16'0 0.0
2017-Oct-15 04:30N 51°21' E 004°16'0 0.0
2017-Oct-15 04:01N 51°21' E 004°16'0 0.0
2017-Oct-15 03:30N 51°21' E 004°16'0 0.0
2017-Oct-15 03:00N 51°21' E 004°16'0 0.0
2017-Oct-15 02:31N 51°21' E 004°16'0 0.0
2017-Oct-15 02:01N 51°21' E 004°16'1 2.3
2017-Oct-15 01:31N 51°21' E 004°14'5 9.1
2017-Oct-15 01:00N 51°22' E 004°07'611.4
2017-Oct-15 00:30N 51°26' E 004°00'714.2
2017-Oct-15 00:00N 51°21' E 003°52'613.0
2017-Oct-14 23:30N 51°23' E 003°43'510.7
2017-Oct-14 23:01N 51°26' E 003°35'3 6.7
2017-Oct-14 22:31N 51°25' E 003°30'611.4
2017-Oct-14 22:01N 51°24' E 003°21'816.5
2017-Oct-14 21:30N 51°24' E 003°07'815.8
2017-Oct-14 21:00N 51°22' E 002°55'713.5
2017-Oct-14 20:29N 51°22' E 002°44'613.2
2017-Oct-14 20:00N 51°22' E 002°34'815.4
2017-Oct-14 19:30N 51°20' E 002°22'714.2
2017-Oct-14 19:00N 51°19' E 002°11'611.6
2017-Oct-14 18:30N 51°21' E 002°02'611.7
2017-Oct-14 18:00N 51°26' E 001°57'611.9
2017-Oct-14 17:30N 51°31' E 001°52'611.7
2017-Oct-14 17:00N 51°36' E 001°47'611.8
2017-Oct-14 16:30N 51°42' E 001°44'612.4
2017-Oct-14 16:00N 51°48' E 001°43'510.7
2017-Oct-14 15:30N 51°51' E 001°36'4 8.8
2017-Oct-14 15:00N 51°55' E 001°32'5 9.0
2017-Oct-14 14:30N 51°56' E 001°25'4 8.2
2017-Oct-14 14:00N 51°56' E 001°19'2 3.3
2017-Oct-14 13:29N 51°58' E 001°18'0 0.0
2017-Oct-14 12:59N 51°58' E 001°18'0 0.0
2017-Oct-14 12:29N 51°58' E 001°18'0 0.0
2017-Oct-14 11:59N 51°58' E 001°18'0 0.0
2017-Oct-14 11:29N 51°58' E 001°18'0 0.0
2017-Oct-14 10:59N 51°58' E 001°18'0 0.0
2017-Oct-14 10:29N 51°58' E 001°18'0 0.0
2017-Oct-14 09:59N 51°58' E 001°18'0 0.0
2017-Oct-14 09:29N 51°58' E 001°18'0 0.0
2017-Oct-14 08:59N 51°58' E 001°18'0 0.0
2017-Oct-14 08:29N 51°58' E 001°18'0 0.0
2017-Oct-14 07:59N 51°58' E 001°18'0 0.0
2017-Oct-14 07:29N 51°58' E 001°18'0 0.0
2017-Oct-14 06:59N 51°58' E 001°18'0 0.0
2017-Oct-14 06:29N 51°58' E 001°18'0 0.0
2017-Oct-14 05:59N 51°58' E 001°18'0 0.0
2017-Oct-14 05:29N 51°58' E 001°18'0 0.0
2017-Oct-14 04:59N 51°58' E 001°18'0 0.0
2017-Oct-14 04:29N 51°58' E 001°18'0 0.0
2017-Oct-14 03:59N 51°58' E 001°18'0 0.0
2017-Oct-14 03:29N 51°58' E 001°18'0 0.0
2017-Oct-14 02:59N 51°58' E 001°18'0 0.0
2017-Oct-14 02:29N 51°58' E 001°18'0 0.0
2017-Oct-14 01:59N 51°58' E 001°18'0 0.0
2017-Oct-14 01:29N 51°58' E 001°18'0 0.0
2017-Oct-14 00:59N 51°58' E 001°18'0 0.0
2017-Oct-14 00:29N 51°58' E 001°18'0 0.0
2017-Oct-13 23:59N 51°58' E 001°18'0 0.0
2017-Oct-13 23:29N 51°58' E 001°18'0 0.0
2017-Oct-13 22:59N 51°58' E 001°18'0 0.0
2017-Oct-13 22:29N 51°58' E 001°18'0 0.0
2017-Oct-13 21:59N 51°58' E 001°18'0 0.0
2017-Oct-13 21:29N 51°58' E 001°18'0 0.0
2017-Oct-13 21:00N 51°58' E 001°18'0 0.0
2017-Oct-13 20:29N 51°58' E 001°18'0 0.0
2017-Oct-13 19:59N 51°58' E 001°18'0 0.0
2017-Oct-13 19:29N 51°58' E 001°18'0 0.0
2017-Oct-13 18:59N 51°58' E 001°18'0 0.0
2017-Oct-13 18:29N 51°58' E 001°18'0 0.0
2017-Oct-13 17:59N 51°58' E 001°18'0 0.0
2017-Oct-13 17:29N 51°58' E 001°18'0 0.0
2017-Oct-13 16:59N 51°58' E 001°18'0 0.0
2017-Oct-13 16:29N 51°58' E 001°18'0 0.0
2017-Oct-13 15:59N 51°58' E 001°18'0 0.0
2017-Oct-13 15:29N 51°58' E 001°18'0 0.0
2017-Oct-13 14:59N 51°58' E 001°18'0 0.0
2017-Oct-13 14:29N 51°58' E 001°18'0 0.0
2017-Oct-13 13:59N 51°58' E 001°18'0 0.0
2017-Oct-13 13:29N 51°58' E 001°18'0 0.0
2017-Oct-13 12:59N 51°58' E 001°18'0 0.0
2017-Oct-13 12:29N 51°58' E 001°18'0 0.0
2017-Oct-13 11:59N 51°58' E 001°18'0 0.0
2017-Oct-13 11:29N 51°58' E 001°18'0 0.0
2017-Oct-13 10:59N 51°58' E 001°18'0 0.0
2017-Oct-13 10:29N 51°58' E 001°18'0 0.0
2017-Oct-13 09:59N 51°58' E 001°18'0 0.4
2017-Oct-13 09:30N 51°57' E 001°18'2 3.6
2017-Oct-13 09:00N 51°56' E 001°19'510.1
2017-Oct-13 08:31N 51°56' E 001°27'611.1
2017-Oct-13 08:01N 51°52' E 001°34'4 8.8
2017-Oct-13 07:30N 51°51' E 001°41'3 6.0
2017-Oct-13 07:00N 51°51' E 001°46'510.3
2017-Oct-13 06:30N 51°46' E 001°48'612.1
2017-Oct-13 06:00N 51°40' E 001°49'611.2
2017-Oct-13 05:30N 51°35' E 001°53'510.8
2017-Oct-13 05:00N 51°31' E 001°57'510.1
2017-Oct-13 04:30N 51°26' E 002°01'5 9.5
2017-Oct-13 04:00N 51°21' E 001°59'1010.4
2017-Oct-13 03:00N 51°13' E 001°49'5 9.7
2017-Oct-13 02:30N 51°09' E 001°44'4 8.9
2017-Oct-13 02:00N 51°06' E 001°40'4 8.5
2017-Oct-13 01:30N 51°02' E 001°36'4 8.3
2017-Oct-13 01:00N 50°59' E 001°32'4 8.2
2017-Oct-13 00:30N 50°56' E 001°28'4 7.8
2017-Oct-13 00:00N 50°52' E 001°26'4 8.1
2017-Oct-12 23:30N 50°48' E 001°24'4 8.4
2017-Oct-12 23:00N 50°44' E 001°21'4 8.6
2017-Oct-12 22:30N 50°41' E 001°17'5 9.1
2017-Oct-12 22:00N 50°38' E 001°12'5 9.3
2017-Oct-12 21:29N 50°34' E 001°07'5 9.3
2017-Oct-12 20:59N 50°31' E 001°02'4 8.9
2017-Oct-12 20:29N 50°29' E 000°56'5 9.5
2017-Oct-12 20:00N 50°28' E 000°48'5 9.5
2017-Oct-12 19:30N 50°27' E 000°41'5 9.6
2017-Oct-12 19:00N 50°26' E 000°34'5 9.6
2017-Oct-12 18:30N 50°24' E 000°27'5 9.6
2017-Oct-12 18:00N 50°23' E 000°20'5 9.6
2017-Oct-12 17:30N 50°22' E 000°12'5 9.7
2017-Oct-12 17:00N 50°21' E 000°05'510.0
2017-Oct-12 16:30N 50°19' W 000°03'510.3
2017-Oct-12 16:00N 50°18' W 000°10'510.6
2017-Oct-12 15:30N 50°16' W 000°18'511.0
2017-Oct-12 15:00N 50°15' W 000°27'611.5
2017-Oct-12 14:30N 50°13' W 000°35'3012.1
2017-Oct-12 12:00N 50°00' W 001°18'4115.8 230 / 111022.910.8 17.5 9.416.0
2017-Oct-12 09:22N 49°55' W 002°22'715.5
2017-Oct-12 08:54N 49°53' W 002°33'615.3
2017-Oct-12 08:30N 49°51' W 002°42'815.3
2017-Oct-12 08:00N 49°49' W 002°53'815.1
2017-Oct-12 07:30N 49°46' W 003°04'714.9
2017-Oct-12 07:00N 49°44' W 003°15'815.0
2017-Oct-12 06:28N 49°40' W 003°26'5 9.5
2017-Oct-12 06:00N 49°36' W 003°30'486.7 250 / 101020.510.8 17.011.516.0
2017-Oct-12 05:57N 49°36' W 003°36'815.0
2017-Oct-12 05:25N 49°32' W 003°47'615.0
2017-Oct-12 05:00N 49°28' W 003°55'  

Dump ship's entire track history